Time;durP1;ratioP1;P1;durP2;ratioP2;P2;SDS_P1;SDS_P2;PMS_P1;PMS_P2;Temp;Humidity;BMP_temperature;BMP_pressure;BME280_temperature;BME280_humidity;BME280_pressure;Samples;Min_cycle;Max_cycle;Signal;HPM_P1;HPM_P2
2021/09/21 00:02:13;;;;;;;18.90;10.15;;;;;;;;;;5050999;28;20108;-64
2021/09/21 00:04:41;;;;;;;19.17;11.18;;;;;;;;;;5051185;28;20031;-64
2021/09/21 00:07:07;;;;;;;;;;;;;;;;;;5048807;28;20029;-64
2021/09/21 00:09:33;;;;;;;17.33;10.48;;;;;;;;;;5022265;28;20392;-64
2021/09/21 00:11:59;;;;;;;16.90;10.00;;;;;;;;;;4994198;28;20084;-64
2021/09/21 00:14:25;;;;;;;18.25;10.25;;;;;;;;;;4993731;28;20458;-64
2021/09/21 00:16:51;;;;;;;18.50;10.18;;;;;;;;;;4993607;28;20033;-64
2021/09/21 00:19:17;;;;;;;17.58;10.20;;;;;;;;;;5016969;28;20038;-64
2021/09/21 00:21:43;;;;;;;18.83;11.25;;;;;;;;;;5031163;28;20500;-64
2021/09/21 00:24:09;;;;;;;19.02;10.90;;;;;;;;;;5013260;28;20028;-65
2021/09/21 00:26:35;;;;;;;20.80;10.63;;;;;;;;;;5030951;28;20030;-64
2021/09/21 00:29:02;;;;;;;16.92;10.27;;;;;;;;;;5026373;28;20083;-64
2021/09/21 00:31:37;;;;;;;17.13;10.20;;;;;;;;;;5011278;28;20022;-64
2021/09/21 00:34:08;;;;;;;17.65;10.20;;;;;;;;;;4993650;28;20033;-64
2021/09/21 00:36:35;;;;;;;18.88;11.15;;;;;;;;;;4993493;28;20032;-64
2021/09/21 00:39:01;;;;;;;19.85;11.05;;;;;;;;;;5014055;28;20026;-64
2021/09/21 00:41:28;;;;;;;18.80;10.77;;;;;;;;;;5031054;28;20029;-64
2021/09/21 00:43:54;;;;;;;20.00;11.15;;;;;;;;;;5030584;28;20034;-64
2021/09/21 00:46:20;;;;;;;18.27;11.40;;;;;;;;;;5013153;28;20026;-64
2021/09/21 00:48:46;;;;;;;20.15;11.13;;;;;;;;;;5029043;28;20042;-64
2021/09/21 00:51:12;;;;;;;18.40;10.70;;;;;;;;;;4993245;28;20053;-64
2021/09/21 00:53:38;;;;;;;17.35;11.55;;;;;;;;;;5010910;28;20422;-64
2021/09/21 00:56:05;;;;;;;18.08;10.80;;;;;;;;;;4993289;28;20080;-64
2021/09/21 00:58:31;;;;;;;18.40;11.10;;;;;;;;;;4995033;28;20053;-64
2021/09/21 01:00:57;;;;;;;17.92;10.75;;;;;;;;;;5030598;28;20037;-64
2021/09/21 01:03:23;;;;;;;18.13;10.85;;;;;;;;;;5030680;28;20060;-64
2021/09/21 01:05:49;;;;;;;17.25;11.35;;;;;;;;;;5030572;28;20033;-64
2021/09/21 01:08:15;;;;;;;18.25;11.23;;;;;;;;;;5012081;28;20030;-64
2021/09/21 01:10:41;;;;;;;19.33;12.30;;;;;;;;;;5011126;28;20382;-64
2021/09/21 01:13:10;;;;;;;19.70;12.38;;;;;;;;;;5014586;28;20029;-65
2021/09/21 01:15:35;;;;;;;19.55;11.93;;;;;;;;;;5014318;28;20499;-64
2021/09/21 01:18:01;;;;;;;18.65;11.35;;;;;;;;;;5014431;28;20086;-64
2021/09/21 01:20:28;;;;;;;18.67;11.05;;;;;;;;;;5013743;28;20505;-64
2021/09/21 01:22:54;;;;;;;17.90;11.48;;;;;;;;;;5034309;28;20022;-64
2021/09/21 01:25:20;;;;;;;21.10;11.73;;;;;;;;;;5016329;28;20188;-64
2021/09/21 01:27:46;;;;;;;18.92;10.88;;;;;;;;;;5016611;28;20626;-64
2021/09/21 01:30:13;;;;;;;19.30;10.50;;;;;;;;;;5018120;28;20037;-65
2021/09/21 01:32:39;;;;;;;19.43;10.43;;;;;;;;;;5013880;28;20088;-63
2021/09/21 01:35:06;;;;;;;18.77;10.52;;;;;;;;;;4996323;28;20025;-62
2021/09/21 01:37:32;;;;;;;18.27;10.40;;;;;;;;;;5013981;28;20369;-63
2021/09/21 01:39:58;;;;;;;19.45;11.07;;;;;;;;;;5009346;28;20515;-63
2021/09/21 01:42:24;;;;;;;18.50;10.50;;;;;;;;;;5033704;28;20378;-63
2021/09/21 01:44:50;;;;;;;19.25;10.55;;;;;;;;;;5033619;28;20025;-62
2021/09/21 01:47:19;;;;;;;19.00;11.00;;;;;;;;;;5015744;28;20465;-63
2021/09/21 01:52:42;;;;;;;20.85;10.98;;;;;;;;;;5030498;28;20024;-64
2021/09/21 01:55:12;;;;;;;20.17;11.50;;;;;;;;;;4996169;28;20033;-64
2021/09/21 02:00:23;;;;;;;18.33;10.50;;;;;;;;;;5029583;28;20401;-64
2021/09/21 02:02:49;;;;;;;22.27;13.23;;;;;;;;;;5015581;28;20083;-63
2021/09/21 02:05:15;;;;;;;23.73;13.68;;;;;;;;;;5015517;28;20088;-64
2021/09/21 02:07:41;;;;;;;20.65;13.00;;;;;;;;;;5031447;28;20037;-64
2021/09/21 02:10:08;;;;;;;19.60;11.77;;;;;;;;;;5018692;28;20117;-64
2021/09/21 02:12:34;;;;;;;21.25;10.75;;;;;;;;;;4995720;28;20032;-63
2021/09/21 02:15:01;;;;;;;21.75;11.60;;;;;;;;;;5013395;28;20100;-64
2021/09/21 02:17:27;;;;;;;19.50;11.75;;;;;;;;;;5013245;28;20033;-63
2021/09/21 02:19:53;;;;;;;19.88;11.10;;;;;;;;;;5024474;28;20087;-64
2021/09/21 02:22:19;;;;;;;19.95;10.90;;;;;;;;;;5014603;28;20030;-66
2021/09/21 02:24:45;;;;;;;20.23;11.52;;;;;;;;;;5014493;28;20038;-64
2021/09/21 02:27:11;;;;;;;22.85;14.88;;;;;;;;;;5032706;28;20080;-64
2021/09/21 02:29:37;;;;;;;23.77;13.55;;;;;;;;;;5019327;28;20037;-63
2021/09/21 02:32:03;;;;;;;24.13;13.60;;;;;;;;;;5013002;28;20673;-64
2021/09/21 02:34:29;;;;;;;20.35;11.88;;;;;;;;;;5012908;28;20022;-63
2021/09/21 02:36:55;;;;;;;21.45;12.32;;;;;;;;;;4995106;28;20018;-63
2021/09/21 02:39:21;;;;;;;30.60;19.67;;;;;;;;;;5005091;28;20033;-64
2021/09/21 02:41:47;;;;;;;22.58;13.73;;;;;;;;;;5015005;28;20018;-64
2021/09/21 02:44:13;;;;;;;22.52;13.68;;;;;;;;;;5015176;28;20044;-64
2021/09/21 02:46:39;;;;;;;20.40;12.68;;;;;;;;;;5014681;28;20021;-64
2021/09/21 02:49:05;;;;;;;24.58;15.13;;;;;;;;;;5014186;28;20405;-64
2021/09/21 02:51:31;;;;;;;23.88;12.95;;;;;;;;;;5032262;28;20025;-64
2021/09/21 02:53:57;;;;;;;26.67;15.93;;;;;;;;;;5014957;28;20521;-64
2021/09/21 02:56:23;;;;;;;21.13;13.93;;;;;;;;;;5032473;28;20022;-64
2021/09/21 02:58:49;;;;;;;24.08;15.00;;;;;;;;;;5026104;28;20034;-64
2021/09/21 03:01:15;;;;;;;21.48;12.57;;;;;;;;;;4994862;28;20030;-64
2021/09/21 03:03:46;;;;;;;21.13;12.07;;;;;;;;;;5012268;28;20036;-64
2021/09/21 03:06:21;;;;;;;23.33;11.93;;;;;;;;;;4994784;28;20026;-64
2021/09/21 03:08:47;;;;;;;21.50;11.63;;;;;;;;;;4999180;28;20021;-64
2021/09/21 03:18:50;;;;;;;22.13;12.20;;;;;;;;;;5021322;28;20037;-64
2021/09/21 03:21:16;;;;;;;20.58;11.60;;;;;;;;;;4994746;28;20022;-64
2021/09/21 03:23:43;;;;;;;26.00;11.63;;;;;;;;;;5012022;28;20451;-64
2021/09/21 03:26:09;;;;;;;18.90;11.20;;;;;;;;;;5011891;28;20030;-64
2021/09/21 03:28:35;;;;;;;21.42;11.95;;;;;;;;;;5000967;28;20585;-64
2021/09/21 03:31:01;;;;;;;20.85;11.68;;;;;;;;;;5031767;28;20123;-64
2021/09/21 03:33:27;;;;;;;23.35;13.30;;;;;;;;;;5031679;28;20100;-64
2021/09/21 03:35:53;;;;;;;21.58;12.73;;;;;;;;;;5013754;28;20457;-64
2021/09/21 03:38:19;;;;;;;22.45;11.20;;;;;;;;;;5008711;28;20045;-63
2021/09/21 03:40:45;;;;;;;20.90;11.50;;;;;;;;;;5011925;28;20033;-64
2021/09/21 03:43:11;;;;;;;19.67;11.60;;;;;;;;;;5011987;28;20485;-64
2021/09/21 03:45:38;;;;;;;19.83;11.77;;;;;;;;;;5011822;28;20375;-64
2021/09/21 03:48:06;;;;;;;24.33;12.15;;;;;;;;;;5012849;28;20021;-63
2021/09/21 03:50:32;;;;;;;20.52;11.68;;;;;;;;;;5031102;28;20120;-64
2021/09/21 03:52:58;;;;;;;21.92;12.00;;;;;;;;;;5013348;28;20130;-64
2021/09/21 03:55:24;;;;;;;21.45;11.70;;;;;;;;;;5013476;28;20043;-64
2021/09/21 03:57:50;;;;;;;21.25;12.35;;;;;;;;;;5013166;28;20025;-64
2021/09/21 04:00:16;;;;;;;21.98;13.43;;;;;;;;;;4994169;28;20080;-64
2021/09/21 04:02:42;;;;;;;20.73;12.50;;;;;;;;;;5017438;28;20038;-64
2021/09/21 04:05:09;;;;;;;21.88;13.05;;;;;;;;;;5017616;28;20025;-64
2021/09/21 04:07:35;;;;;;;22.85;13.25;;;;;;;;;;5025126;28;20496;-65
2021/09/21 04:10:01;;;;;;;24.45;13.85;;;;;;;;;;5019098;28;20045;-65
2021/09/21 04:12:27;;;;;;;21.92;14.55;;;;;;;;;;5011449;28;20057;-64
2021/09/21 04:14:53;;;;;;;21.85;13.25;;;;;;;;;;5011498;28;20022;-64
2021/09/21 04:17:19;;;;;;;21.77;13.85;;;;;;;;;;5011100;28;20397;-64
2021/09/21 04:19:45;;;;;;;21.55;13.02;;;;;;;;;;5025988;28;20040;-64
2021/09/21 04:22:11;;;;;;;24.45;14.55;;;;;;;;;;5031710;28;20060;-64
2021/09/21 04:24:37;;;;;;;23.23;14.65;;;;;;;;;;5014166;28;20445;-64
2021/09/21 04:27:04;;;;;;;23.33;14.07;;;;;;;;;;5013414;28;20481;-64
2021/09/21 04:29:30;;;;;;;23.42;13.98;;;;;;;;;;5030099;28;20025;-64
2021/09/21 04:32:00;;;;;;;24.15;14.02;;;;;;;;;;5031007;28;20096;-64
2021/09/21 04:34:26;;;;;;;24.15;14.82;;;;;;;;;;5030988;28;20017;-64
2021/09/21 04:36:55;;;;;;;24.60;15.20;;;;;;;;;;5030954;28;20101;-65
2021/09/21 04:39:21;;;;;;;23.85;14.25;;;;;;;;;;5019422;28;20438;-64
2021/09/21 04:41:47;;;;;;;25.73;14.52;;;;;;;;;;5011306;28;20033;-64
2021/09/21 04:44:13;;;;;;;26.85;15.13;;;;;;;;;;5011294;28;20046;-64
2021/09/21 04:46:39;;;;;;;25.75;15.68;;;;;;;;;;4995006;28;20397;-65
2021/09/21 04:49:06;;;;;;;23.83;14.80;;;;;;;;;;5026947;28;20100;-64
2021/09/21 04:51:32;;;;;;;25.10;14.50;;;;;;;;;;5034311;28;20083;-64
2021/09/21 04:53:59;;;;;;;23.75;14.88;;;;;;;;;;5016863;28;20021;-64
2021/09/21 04:56:25;;;;;;;22.60;13.73;;;;;;;;;;5034318;28;20025;-65
2021/09/21 04:58:51;;;;;;;27.52;15.40;;;;;;;;;;5022912;28;20041;-65
2021/09/21 05:01:17;;;;;;;24.63;14.73;;;;;;;;;;5011728;28;20024;-65
2021/09/21 05:03:43;;;;;;;24.00;14.50;;;;;;;;;;5053916;28;20098;-65
2021/09/21 05:06:09;;;;;;;23.85;15.23;;;;;;;;;;5051728;28;20029;-66
2021/09/21 05:08:35;;;;;;;25.77;15.27;;;;;;;;;;5007563;28;20177;-65
2021/09/21 05:11:01;;;;;;;24.90;15.45;;;;;;;;;;5035917;28;20156;-66
2021/09/21 05:13:27;;;;;;;24.38;15.23;;;;;;;;;;5053887;28;20021;-66
2021/09/21 05:15:53;;;;;;;24.90;14.98;;;;;;;;;;5054196;28;20118;-66
2021/09/21 05:18:19;;;;;;;25.98;15.05;;;;;;;;;;5028912;28;20099;-65
2021/09/21 05:20:45;;;;;;;25.98;15.35;;;;;;;;;;5034071;28;20061;-65
2021/09/21 05:23:11;;;;;;;25.20;16.35;;;;;;;;;;5016926;28;20029;-65
2021/09/21 05:25:37;;;;;;;28.17;16.10;;;;;;;;;;5035052;28;20032;-66
2021/09/21 05:28:04;;;;;;;24.90;14.73;;;;;;;;;;5012830;28;20485;-65
2021/09/21 05:30:30;;;;;;;28.33;15.88;;;;;;;;;;5013758;28;20072;-65
2021/09/21 05:32:56;;;;;;;27.92;15.85;;;;;;;;;;4996321;28;20022;-65
2021/09/21 05:35:22;;;;;;;26.10;15.93;;;;;;;;;;5015910;28;20017;-64
2021/09/21 05:37:48;;;;;;;28.85;16.60;;;;;;;;;;5051421;28;20366;-65
2021/09/21 05:40:17;;;;;;;28.70;16.67;;;;;;;;;;5033402;28;20017;-65
2021/09/21 05:42:43;;;;;;;26.00;15.60;;;;;;;;;;5033511;28;20075;-65
2021/09/21 05:45:10;;;;;;;26.17;15.27;;;;;;;;;;5034275;28;20037;-65
2021/09/21 05:47:38;;;;;;;31.63;18.88;;;;;;;;;;5030777;28;20065;-64
2021/09/21 05:50:04;;;;;;;;;;;;;;;;;;4996125;28;20129;-65
2021/09/21 05:52:30;;;;;;;24.60;15.48;;;;;;;;;;5014498;28;19999;-65
2021/09/21 05:54:56;;;;;;;25.92;16.23;;;;;;;;;;5013172;28;20032;-65
2021/09/21 05:59:52;;;;;;;26.30;16.33;;;;;;;;;;5051015;28;20044;-59
2021/09/21 06:02:23;;;;;;;26.17;15.75;;;;;;;;;;5053259;28;20442;-58
2021/09/21 06:04:49;;;;;;;28.33;16.70;;;;;;;;;;5053527;28;20025;-60
2021/09/21 06:07:14;;;;;;;29.73;16.48;;;;;;;;;;5035469;28;20031;-61
2021/09/21 06:09:40;;;;;;;26.67;15.50;;;;;;;;;;5032134;28;20044;-59
2021/09/21 06:12:06;;;;;;;25.45;15.63;;;;;;;;;;5032426;28;20024;-59
2021/09/21 06:14:32;;;;;;;24.30;15.55;;;;;;;;;;5032929;28;20115;-59
2021/09/21 06:16:58;;;;;;;26.23;15.50;;;;;;;;;;5033343;28;20407;-61
2021/09/21 06:19:24;;;;;;;23.23;14.65;;;;;;;;;;4998794;28;20026;-59
2021/09/21 06:21:51;;;;;;;23.20;14.75;;;;;;;;;;5012212;28;20022;-59
2021/09/21 06:24:17;;;;;;;25.25;15.63;;;;;;;;;;5013301;28;20026;-55
2021/09/21 06:26:43;;;;;;;23.77;15.13;;;;;;;;;;5013213;28;20073;-59
2021/09/21 06:29:09;;;;;;;23.75;14.95;;;;;;;;;;5027063;28;20061;-59
2021/09/21 06:31:35;;;;;;;24.88;15.80;;;;;;;;;;5008013;28;20379;-57
2021/09/21 06:34:01;;;;;;;25.08;15.05;;;;;;;;;;5013264;28;20444;-59
2021/09/21 06:36:27;;;;;;;25.10;15.18;;;;;;;;;;5028422;28;20029;-59
2021/09/21 06:38:53;;;;;;;25.17;15.65;;;;;;;;;;5034868;28;20465;-59
2021/09/21 06:41:19;;;;;;;24.90;16.00;;;;;;;;;;5048733;28;20025;-58
2021/09/21 06:43:45;;;;;;;26.30;16.52;;;;;;;;;;5015091;28;20561;-57
2021/09/21 06:46:11;;;;;;;27.23;16.00;;;;;;;;;;5015143;28;20026;-59
2021/09/21 06:48:39;;;;;;;25.35;15.75;;;;;;;;;;5032467;28;20118;-59
2021/09/21 06:51:06;;;;;;;27.92;16.80;;;;;;;;;;5031136;28;20021;-60
2021/09/21 06:53:32;;;;;;;26.35;16.63;;;;;;;;;;5012923;28;20050;-59
2021/09/21 06:55:58;;;;;;;27.90;17.42;;;;;;;;;;4995501;28;20034;-59
2021/09/21 06:58:24;;;;;;;24.35;15.20;;;;;;;;;;5011480;28;20053;-59
2021/09/21 07:00:50;;;;;;;24.38;15.82;;;;;;;;;;5011527;28;20029;-58
2021/09/21 07:03:16;;;;;;;28.33;18.10;;;;;;;;;;5019650;28;20096;-58
2021/09/21 07:05:42;;;;;;;24.95;17.48;;;;;;;;;;5032759;28;20048;-57
2021/09/21 07:08:08;;;;;;;31.30;19.20;;;;;;;;;;5032506;28;20029;-57
2021/09/21 07:10:34;;;;;;;27.60;18.08;;;;;;;;;;5032012;28;20422;-57
2021/09/21 07:13:00;;;;;;;25.90;17.63;;;;;;;;;;5031717;28;20100;-57
2021/09/21 07:15:26;;;;;;;27.38;17.90;;;;;;;;;;5032576;28;20499;-57
2021/09/21 07:17:53;;;;;;;27.42;16.65;;;;;;;;;;5032051;28;20032;-58
2021/09/21 07:20:20;;;;;;;25.73;17.73;;;;;;;;;;5032180;28;20049;-56
2021/09/21 07:22:46;;;;;;;24.90;16.88;;;;;;;;;;5017379;28;20037;-58
2021/09/21 07:25:12;;;;;;;24.90;16.70;;;;;;;;;;5012477;28;20026;-55
2021/09/21 07:27:39;;;;;;;22.98;16.77;;;;;;;;;;5012274;28;20030;-55
2021/09/21 07:30:05;;;;;;;25.60;17.13;;;;;;;;;;5012315;28;20068;-58
2021/09/21 07:32:31;;;;;;;22.92;16.92;;;;;;;;;;5021742;28;20022;-55
2021/09/21 07:34:57;;;;;;;28.92;19.13;;;;;;;;;;5032382;28;20030;-58
2021/09/21 07:37:23;;;;;;;25.25;17.98;;;;;;;;;;5032108;28;20021;-58
2021/09/21 07:39:49;;;;;;;23.30;17.83;;;;;;;;;;5032028;28;20104;-58
2021/09/21 07:42:17;;;;;;;23.75;18.05;;;;;;;;;;5024421;28;20030;-56
2021/09/21 07:44:43;;;;;;;58.42;26.42;;;;;;;;;;5010932;28;20022;-58
2021/09/21 07:47:09;;;;;;;23.15;17.95;;;;;;;;;;5012348;28;20017;-56
2021/09/21 07:49:35;;;;;;;23.13;16.73;;;;;;;;;;5011964;28;20076;-58
2021/09/21 07:52:01;;;;;;;27.90;17.15;;;;;;;;;;5013798;28;20036;-57
2021/09/21 07:54:27;;;;;;;29.23;17.20;;;;;;;;;;5013931;28;20060;-58
2021/09/21 07:56:53;;;;;;;23.00;17.70;;;;;;;;;;5013895;28;20053;-58
2021/09/21 07:59:19;;;;;;;23.80;17.52;;;;;;;;;;5031393;28;20421;-59
2021/09/21 08:01:45;;;;;;;22.65;17.00;;;;;;;;;;5007629;28;20018;-57
2021/09/21 08:04:11;;;;;;;24.23;16.65;;;;;;;;;;5026429;28;20025;-57
2021/09/21 08:06:37;;;;;;;23.63;17.55;;;;;;;;;;5014722;28;20033;-58
2021/09/21 08:09:04;;;;;;;23.05;16.40;;;;;;;;;;5013865;28;20036;-57
2021/09/21 08:11:30;;;;;;;23.38;17.00;;;;;;;;;;5013225;28;20045;-57
2021/09/21 08:13:56;;;;;;;23.38;17.67;;;;;;;;;;5031921;28;20033;-59
2021/09/21 08:16:22;;;;;;;23.58;16.33;;;;;;;;;;5032434;28;20037;-59
2021/09/21 08:18:48;;;;;;;23.77;17.27;;;;;;;;;;5013697;28;20029;-60
2021/09/21 08:21:14;;;;;;;21.17;16.42;;;;;;;;;;5013102;28;20438;-58
2021/09/21 08:23:40;;;;;;;22.88;16.02;;;;;;;;;;5016093;28;20037;-58
2021/09/21 08:26:06;;;;;;;24.10;17.25;;;;;;;;;;5016103;28;20474;-59
2021/09/21 08:28:32;;;;;;;23.00;18.05;;;;;;;;;;5015647;28;20068;-59
2021/09/21 08:30:58;;;;;;;23.27;18.17;;;;;;;;;;5016320;28;20428;-58
2021/09/21 08:33:24;;;;;;;24.77;18.05;;;;;;;;;;5034160;28;20099;-60
2021/09/21 08:35:50;;;;;;;23.65;18.15;;;;;;;;;;5035474;28;20022;-58
2021/09/21 08:38:16;;;;;;;22.50;17.48;;;;;;;;;;5035316;28;20389;-59
2021/09/21 08:40:42;;;;;;;24.15;17.60;;;;;;;;;;5035295;28;20047;-58
2021/09/21 08:43:08;;;;;;;23.05;17.17;;;;;;;;;;5018816;28;20044;-59
2021/09/21 08:45:34;;;;;;;24.67;17.08;;;;;;;;;;5035142;28;20105;-59
2021/09/21 08:48:01;;;;;;;24.27;17.67;;;;;;;;;;5016868;28;20473;-62
2021/09/21 08:50:27;;;;;;;23.20;17.40;;;;;;;;;;5034639;28;20029;-58
2021/09/21 08:52:53;;;;;;;24.98;17.63;;;;;;;;;;5017261;28;20509;-59
2021/09/21 08:55:19;;;;;;;26.00;17.65;;;;;;;;;;5016781;28;20112;-58
2021/09/21 08:57:46;;;;;;;24.55;17.02;;;;;;;;;;5012120;28;20045;-57
2021/09/21 09:00:21;;;;;;;29.13;18.77;;;;;;;;;;5014268;28;20033;-57
2021/09/21 09:02:47;;;;;;;23.92;18.25;;;;;;;;;;5032222;28;20029;-58
2021/09/21 09:05:13;;;;;;;24.23;16.58;;;;;;;;;;5013515;28;20441;-55
2021/09/21 09:07:52;;;;;;;20.02;16.52;;;;;;;;;;5032763;28;20029;-54
2021/09/21 09:10:19;;;;;;;24.48;17.08;;;;;;;;;;5014911;28;20112;-55
2021/09/21 09:12:45;;;;;;;22.65;17.05;;;;;;;;;;5014196;28;20128;-57
2021/09/21 09:15:12;;;;;;;21.05;17.25;;;;;;;;;;5044909;28;20052;-54
2021/09/21 09:17:38;;;;;;;20.70;16.38;;;;;;;;;;5033660;28;20033;-57
2021/09/21 09:20:05;;;;;;;21.08;17.60;;;;;;;;;;5001741;28;20089;-58
2021/09/21 09:22:31;;;;;;;21.35;17.50;;;;;;;;;;5012048;28;20025;-57
2021/09/21 09:24:57;;;;;;;19.60;16.52;;;;;;;;;;5011805;28;20528;-57
2021/09/21 09:27:35;;;;;;;23.60;16.38;;;;;;;;;;5011417;28;20037;-58
2021/09/21 09:30:03;;;;;;;20.27;16.50;;;;;;;;;;5009705;28;20022;-58
2021/09/21 09:32:29;;;;;;;20.02;16.50;;;;;;;;;;5010727;28;20054;-56
2021/09/21 09:34:59;;;;;;;19.52;16.60;;;;;;;;;;5013354;28;20438;-59
2021/09/21 09:37:25;;;;;;;18.48;15.73;;;;;;;;;;5013629;28;20124;-57
2021/09/21 09:39:59;;;;;;;18.20;15.50;;;;;;;;;;5030519;28;20466;-56
2021/09/21 09:42:25;;;;;;;17.35;14.98;;;;;;;;;;5030987;28;20029;-58
2021/09/21 09:44:51;;;;;;;18.13;15.18;;;;;;;;;;5018230;28;20133;-59
2021/09/21 09:47:17;;;;;;;18.88;15.55;;;;;;;;;;5010547;28;20053;-59
2021/09/21 09:49:47;;;;;;;18.85;15.40;;;;;;;;;;5011254;28;20058;-56
2021/09/21 09:52:16;;;;;;;18.73;15.52;;;;;;;;;;5009942;28;20034;-58
2021/09/21 09:54:43;;;;;;;18.88;15.25;;;;;;;;;;5009997;28;20022;-59
2021/09/21 09:57:14;;;;;;;17.92;15.43;;;;;;;;;;5014028;28;20029;-58
2021/09/21 09:59:41;;;;;;;18.20;15.15;;;;;;;;;;5030857;28;20184;-59
2021/09/21 10:02:07;;;;;;;18.15;15.30;;;;;;;;;;5023524;28;20129;-59
2021/09/21 10:04:34;;;;;;;18.15;14.70;;;;;;;;;;5030991;28;20038;-60
2021/09/21 10:07:00;;;;;;;18.52;15.13;;;;;;;;;;5032095;28;20040;-60
2021/09/21 10:09:26;;;;;;;18.55;14.88;;;;;;;;;;5031392;28;20091;-55
2021/09/21 10:11:54;;;;;;;18.35;15.00;;;;;;;;;;5013415;28;20060;-58
2021/09/21 10:14:21;;;;;;;17.60;14.67;;;;;;;;;;5031847;28;20044;-59
2021/09/21 10:17:00;;;;;;;17.50;15.60;;;;;;;;;;5031749;28;20029;-55
2021/09/21 10:19:27;;;;;;;17.25;15.10;;;;;;;;;;5013225;28;20561;-57
2021/09/21 10:21:53;;;;;;;18.92;15.13;;;;;;;;;;5032654;28;20018;-59
2021/09/21 10:24:33;;;;;;;18.63;15.80;;;;;;;;;;5015523;28;20030;-59
2021/09/21 10:27:04;;;;;;;19.25;14.95;;;;;;;;;;5033059;28;20017;-60
2021/09/21 10:29:30;;;;;;;17.80;15.32;;;;;;;;;;5032377;28;20029;-60
2021/09/21 10:31:56;;;;;;;19.45;14.93;;;;;;;;;;5008332;28;20026;-60
2021/09/21 10:34:22;;;;;;;18.23;15.18;;;;;;;;;;5011835;28;20049;-58
2021/09/21 10:36:59;;;;;;;20.55;15.55;;;;;;;;;;5013118;28;20097;-60
2021/09/21 10:39:27;;;;;;;18.30;15.93;;;;;;;;;;5013247;28;20062;-59
2021/09/21 10:41:54;;;;;;;17.40;15.35;;;;;;;;;;5018874;28;20088;-59
2021/09/21 10:44:21;;;;;;;18.90;15.52;;;;;;;;;;5032290;28;20036;-60
2021/09/21 10:46:55;;;;;;;18.77;16.00;;;;;;;;;;5032559;28;20093;-59
2021/09/21 10:49:24;;;;;;;19.00;15.93;;;;;;;;;;5032548;28;20021;-60
2021/09/21 10:51:50;;;;;;;19.13;15.93;;;;;;;;;;5027783;28;20025;-60
2021/09/21 10:54:17;;;;;;;18.25;15.57;;;;;;;;;;5013008;28;20037;-59
2021/09/21 10:56:43;;;;;;;18.27;15.30;;;;;;;;;;5011741;28;20113;-60
2021/09/21 10:59:18;;;;;;;18.67;16.13;;;;;;;;;;5011415;28;20022;-58
2021/09/21 11:01:50;;;;;;;19.00;16.38;;;;;;;;;;5016181;28;20052;-59
2021/09/21 11:04:16;;;;;;;20.92;16.95;;;;;;;;;;5032201;28;20029;-60
2021/09/21 11:06:43;;;;;;;19.63;15.85;;;;;;;;;;5032192;28;20246;-60
2021/09/21 11:09:09;;;;;;;18.70;16.38;;;;;;;;;;5031583;28;20048;-60
2021/09/21 11:11:35;;;;;;;18.60;16.05;;;;;;;;;;5031005;28;20042;-58
2021/09/21 11:14:02;;;;;;;19.35;16.13;;;;;;;;;;5032220;28;20022;-60
2021/09/21 11:16:28;;;;;;;20.60;15.95;;;;;;;;;;5032288;28;20433;-60
2021/09/21 11:18:56;;;;;;;19.52;17.42;;;;;;;;;;5031906;28;20020;-58
2021/09/21 11:21:22;;;;;;;18.80;16.50;;;;;;;;;;5027759;28;20038;-59
2021/09/21 11:23:48;;;;;;;20.58;16.13;;;;;;;;;;5012459;28;20029;-60
2021/09/21 11:26:15;;;;;;;20.02;16.48;;;;;;;;;;5011212;28;20386;-58
2021/09/21 11:28:45;;;;;;;20.65;16.85;;;;;;;;;;5010608;28;20036;-59
2021/09/21 11:31:11;;;;;;;19.13;16.88;;;;;;;;;;5013709;28;20141;-60
2021/09/21 11:33:40;;;;;;;19.02;16.45;;;;;;;;;;5031493;28;20564;-59
2021/09/21 11:36:07;;;;;;;19.92;16.70;;;;;;;;;;5031776;28;20022;-58
2021/09/21 11:38:35;;;;;;;19.55;16.00;;;;;;;;;;5031180;28;20033;-60
2021/09/21 11:41:01;;;;;;;19.63;16.58;;;;;;;;;;5030760;28;20091;-58
2021/09/21 11:43:29;;;;;;;19.20;16.33;;;;;;;;;;5012024;28;20034;-59
2021/09/21 11:45:55;;;;;;;19.08;16.35;;;;;;;;;;5012094;28;20057;-58
2021/09/21 11:48:21;;;;;;;17.83;15.63;;;;;;;;;;5011743;28;20513;-60
2021/09/21 11:50:48;;;;;;;17.90;15.80;;;;;;;;;;5011575;28;20034;-59
2021/09/21 11:53:15;;;;;;;17.15;15.20;;;;;;;;;;5030839;28;20039;-57
2021/09/21 11:55:43;;;;;;;18.77;15.68;;;;;;;;;;5031910;28;20076;-59
2021/09/21 11:58:10;;;;;;;18.92;15.25;;;;;;;;;;5049188;22;20033;-55
2021/09/21 12:00:38;;;;;;;17.45;15.02;;;;;;;;;;5051524;28;20040;-56
2021/09/21 12:03:06;;;;;;;18.33;15.23;;;;;;;;;;5032875;28;20032;-62
2021/09/21 12:05:33;;;;;;;18.77;16.20;;;;;;;;;;5034128;28;20037;-61
2021/09/21 12:08:00;;;;;;;19.80;15.40;;;;;;;;;;5051269;28;20029;-61
2021/09/21 12:10:27;;;;;;;17.67;14.68;;;;;;;;;;5013744;28;20025;-62
2021/09/21 12:13:07;;;;;;;19.25;15.32;;;;;;;;;;5031147;28;20025;-62
2021/09/21 12:15:34;;;;;;;19.13;15.93;;;;;;;;;;5031913;28;20417;-63
2021/09/21 12:18:02;;;;;;;18.83;16.08;;;;;;;;;;5013980;28;20022;-61
2021/09/21 12:20:32;;;;;;;17.55;15.27;;;;;;;;;;5031657;28;20105;-62
2021/09/21 12:22:59;;;;;;;18.95;15.88;;;;;;;;;;5012342;28;20113;-62
2021/09/21 12:25:25;;;;;;;17.90;15.68;;;;;;;;;;5012678;28;20030;-61
2021/09/21 12:27:55;;;;;;;18.23;15.90;;;;;;;;;;5013595;28;20021;-61
2021/09/21 12:30:25;;;;;;;19.33;16.45;;;;;;;;;;5012219;28;20026;-60
2021/09/21 12:33:05;;;;;;;19.95;16.90;;;;;;;;;;5014813;28;20029;-62
2021/09/21 12:35:33;;;;;;;18.23;16.33;;;;;;;;;;5014289;28;20025;-62
2021/09/21 12:38:18;;;;;;;18.67;16.67;;;;;;;;;;5032013;28;20017;-61
2021/09/21 12:40:51;;;;;;;19.25;16.58;;;;;;;;;;5013555;28;20823;-64
2021/09/21 12:43:21;;;;;;;18.20;16.30;;;;;;;;;;5012218;28;20109;-62
2021/09/21 12:45:48;;;;;;;18.33;15.55;;;;;;;;;;5012200;28;20030;-62
2021/09/21 12:48:14;;;;;;;20.45;15.23;;;;;;;;;;5010524;28;20026;-58
2021/09/21 12:50:41;;;;;;;19.45;16.13;;;;;;;;;;5010452;28;20080;-62
2021/09/21 12:53:07;;;;;;;18.58;16.05;;;;;;;;;;5014124;28;20421;-62
2021/09/21 12:55:35;;;;;;;17.58;15.60;;;;;;;;;;5031867;28;20018;-62
2021/09/21 12:58:01;;;;;;;18.45;16.45;;;;;;;;;;5031467;28;20093;-62
2021/09/21 13:00:34;;;;;;;18.60;16.20;;;;;;;;;;5030916;28;20111;-62
2021/09/21 13:03:00;;;;;;;17.70;15.73;;;;;;;;;;4999815;28;20037;-60
2021/09/21 13:05:26;;;;;;;17.58;15.68;;;;;;;;;;5013767;28;20026;-60
2021/09/21 13:07:52;;;;;;;19.30;16.10;;;;;;;;;;5015718;28;20394;-59
2021/09/21 13:10:19;;;;;;;17.73;15.00;;;;;;;;;;5017237;28;20021;-60
2021/09/21 13:12:53;;;;;;;17.58;15.05;;;;;;;;;;5018564;28;20025;-63
2021/09/21 13:15:19;;;;;;;17.10;15.27;;;;;;;;;;5021544;28;20036;-61
2021/09/21 13:17:45;;;;;;;17.73;15.40;;;;;;;;;;5018923;28;20060;-60
2021/09/21 13:20:11;;;;;;;17.67;15.70;;;;;;;;;;5016905;28;20057;-61
2021/09/21 13:22:37;;;;;;;17.73;15.45;;;;;;;;;;5001367;28;20056;-58
2021/09/21 13:25:03;;;;;;;19.00;16.00;;;;;;;;;;5019724;28;20026;-62
2021/09/21 13:27:29;;;;;;;18.33;15.15;;;;;;;;;;5015461;28;20136;-57
2021/09/21 13:29:56;;;;;;;19.80;15.70;;;;;;;;;;5015170;28;20121;-62
2021/09/21 13:32:22;;;;;;;19.55;16.05;;;;;;;;;;5015090;28;20114;-62
2021/09/21 13:34:48;;;;;;;17.33;15.30;;;;;;;;;;5025971;28;20447;-64
2021/09/21 13:37:14;;;;;;;18.23;15.73;;;;;;;;;;5032382;28;20386;-59
2021/09/21 13:39:40;;;;;;;18.33;16.02;;;;;;;;;;5033041;28;20025;-62
2021/09/21 13:42:06;;;;;;;18.42;15.80;;;;;;;;;;5032107;28;20053;-61
2021/09/21 13:44:32;;;;;;;20.63;15.25;;;;;;;;;;5031188;28;20438;-63
2021/09/21 13:46:58;;;;;;;19.63;15.57;;;;;;;;;;5013756;28;20052;-60
2021/09/21 13:49:24;;;;;;;18.35;15.65;;;;;;;;;;5013546;28;20627;-62
2021/09/21 13:51:49;;;;;;;18.33;16.02;;;;;;;;;;5014520;28;20040;-62
2021/09/21 13:54:15;;;;;;;18.50;16.02;;;;;;;;;;5013995;28;20041;-61
2021/09/21 13:56:42;;;;;;;17.92;15.43;;;;;;;;;;5013134;28;20030;-62
2021/09/21 13:59:08;;;;;;;17.30;15.20;;;;;;;;;;5009426;28;20485;-62
2021/09/21 14:01:33;;;;;;;18.17;15.32;;;;;;;;;;5010227;28;20133;-63
2021/09/21 14:03:59;;;;;;;18.13;15.55;;;;;;;;;;5013511;28;20064;-65
2021/09/21 14:06:25;;;;;;;18.63;15.45;;;;;;;;;;5013481;28;20033;-63
2021/09/21 14:08:51;;;;;;;19.13;16.00;;;;;;;;;;5030298;28;20033;-60
2021/09/21 14:11:17;;;;;;;18.92;15.15;;;;;;;;;;5013232;28;20120;-62
2021/09/21 14:13:43;;;;;;;19.13;15.45;;;;;;;;;;5013384;28;20389;-62
2021/09/21 14:16:09;;;;;;;17.13;14.82;;;;;;;;;;5032089;28;20025;-61
2021/09/21 14:18:35;;;;;;;18.45;14.13;;;;;;;;;;5011416;28;20124;-63
2021/09/21 14:21:01;;;;;;;17.52;15.02;;;;;;;;;;5014218;28;20103;-62
2021/09/21 14:23:29;;;;;;;18.75;15.98;;;;;;;;;;5014297;28;20026;-62
2021/09/21 14:25:56;;;;;;;18.92;15.57;;;;;;;;;;5014063;28;20036;-62
2021/09/21 14:28:22;;;;;;;17.77;14.40;;;;;;;;;;5012357;28;20544;-55
2021/09/21 14:30:48;;;;;;;19.65;14.60;;;;;;;;;;5015563;28;20035;-60
2021/09/21 14:33:14;;;;;;;17.17;14.43;;;;;;;;;;5015745;28;20128;-63